createdAt,value
2019-01-16T00:00:19.888Z,3.15
2019-01-16T00:02:52.583Z,3.55
2019-01-16T00:05:27.938Z,5.00
2019-01-16T00:08:06.368Z,6.37
2019-01-16T00:10:47.878Z,4.67
2019-01-16T00:13:20.569Z,2.98
2019-01-16T00:15:53.257Z,2.50
2019-01-16T00:18:42.970Z,5.17
2019-01-16T00:21:15.739Z,4.42
2019-01-16T00:23:48.427Z,6.33
2019-01-16T00:26:32.775Z,4.35
2019-01-16T00:29:14.833Z,5.65
2019-01-16T00:31:47.512Z,5.90
2019-01-16T00:34:38.610Z,4.22
2019-01-16T00:37:11.291Z,4.58
2019-01-16T00:39:53.022Z,5.50
2019-01-16T00:42:28.248Z,6.33
2019-01-16T00:45:17.633Z,3.47
2019-01-16T00:48:02.455Z,4.60
2019-01-16T00:50:44.033Z,4.10
2019-01-16T00:53:26.034Z,3.83
2019-01-16T00:56:15.117Z,3.42
2019-01-16T00:58:50.797Z,5.05
2019-01-16T01:01:26.189Z,4.85
2019-01-16T01:04:08.095Z,5.80
2019-01-16T01:06:57.627Z,3.83
2019-01-16T01:09:46.914Z,3.65
2019-01-16T01:12:28.711Z,4.50
2019-01-16T01:15:04.175Z,3.35
2019-01-16T01:17:36.853Z,5.53
2019-01-16T01:20:18.495Z,4.67
2019-01-16T01:22:51.174Z,3.40
2019-01-16T01:25:36.066Z,5.05
2019-01-16T01:28:08.785Z,7.05
2019-01-16T01:30:41.479Z,5.72
2019-01-16T01:33:16.943Z,7.85
2019-01-16T01:35:55.169Z,5.72
2019-01-16T01:38:30.372Z,5.85
2019-01-16T01:41:03.078Z,5.50
2019-01-16T01:43:38.719Z,3.90
2019-01-16T01:46:11.414Z,5.12
2019-01-16T01:48:53.206Z,4.65
2019-01-16T01:51:31.713Z,6.30
2019-01-16T01:54:10.947Z,5.28
2019-01-16T01:56:49.468Z,3.87
2019-01-16T01:59:22.141Z,4.62
2019-01-16T02:02:06.594Z,2.55
2019-01-16T02:04:39.295Z,5.75
2019-01-16T02:07:11.991Z,2.95
2019-01-16T02:09:53.931Z,6.22
2019-01-16T02:12:42.013Z,5.03
2019-01-16T02:15:31.315Z,5.72
2019-01-16T02:18:12.535Z,4.75
2019-01-16T02:20:45.231Z,5.37
2019-01-16T02:23:21.025Z,3.98
2019-01-16T02:25:53.769Z,4.28
2019-01-16T02:28:29.507Z,3.52
2019-01-16T02:31:11.146Z,3.05
2019-01-16T02:33:46.944Z,3.47
2019-01-16T02:36:34.568Z,2.77
2019-01-16T02:39:16.096Z,4.25
2019-01-16T02:41:48.817Z,6.72
2019-01-16T02:44:21.497Z,4.17
2019-01-16T02:46:54.186Z,2.95
2019-01-16T02:49:38.927Z,6.67
2019-01-16T02:52:23.702Z,6.20
2019-01-16T02:54:56.399Z,3.65
2019-01-16T02:57:41.174Z,3.10
2019-01-16T03:00:17.183Z,3.67
2019-01-16T03:03:06.254Z,3.45
2019-01-16T03:05:44.722Z,4.83
2019-01-16T03:08:17.443Z,4.22
2019-01-16T03:11:06.646Z,2.98
2019-01-16T03:13:39.342Z,2.80
2019-01-16T03:16:24.369Z,4.87
2019-01-16T03:19:15.449Z,8.48
2019-01-16T03:21:50.646Z,2.80
2019-01-16T03:24:23.346Z,3.08
2019-01-16T03:27:02.315Z,4.87
2019-01-16T03:29:34.996Z,5.05
2019-01-16T03:32:24.487Z,3.47
2019-01-16T03:34:57.168Z,4.58
2019-01-16T03:37:41.626Z,3.33
2019-01-16T03:40:14.415Z,5.05
2019-01-16T03:43:03.911Z,4.05
2019-01-16T03:45:39.360Z,2.98
2019-01-16T03:48:14.540Z,3.45
2019-01-16T03:50:47.211Z,5.12
2019-01-16T03:53:28.693Z,5.53
2019-01-16T03:56:10.424Z,4.78
2019-01-16T03:59:00.281Z,8.20
2019-01-16T04:01:35.785Z,3.65
2019-01-16T04:04:08.525Z,4.37
2019-01-16T04:06:44.000Z,4.42
2019-01-16T04:09:33.374Z,5.53
2019-01-16T04:12:22.951Z,5.00
2019-01-16T04:15:13.592Z,4.60
2019-01-16T04:17:51.926Z,4.08
2019-01-16T04:20:33.191Z,3.83
2019-01-16T04:23:20.955Z,4.62
2019-01-16T04:26:02.751Z,5.35
2019-01-16T04:28:35.767Z,5.33
2019-01-16T04:31:23.749Z,4.75
2019-01-16T04:34:13.611Z,3.40
2019-01-16T04:36:48.883Z,3.83
2019-01-16T04:39:33.509Z,4.50
2019-01-16T04:42:18.020Z,4.55
2019-01-16T04:44:53.519Z,3.62
2019-01-16T04:47:26.208Z,3.98
2019-01-16T04:50:18.026Z,11.73
2019-01-16T04:52:59.845Z,6.80
2019-01-16T04:55:41.087Z,6.30
2019-01-16T04:58:16.277Z,5.28
2019-01-16T05:00:51.473Z,4.55
2019-01-16T05:03:29.959Z,7.75
2019-01-16T05:06:08.418Z,4.65
2019-01-16T05:08:44.130Z,4.33
2019-01-16T05:11:16.809Z,4.80
2019-01-16T05:14:07.329Z,7.00
2019-01-16T05:16:42.521Z,3.17
2019-01-16T05:19:38.578Z,7.35
2019-01-16T05:22:06.741Z,4.40
2019-01-16T05:24:54.739Z,6.35
2019-01-16T05:27:44.297Z,7.55
2019-01-16T05:30:22.791Z,5.97
2019-01-16T05:32:58.240Z,6.55
2019-01-16T05:35:46.216Z,4.90
2019-01-16T05:38:21.674Z,8.70
2019-01-16T05:40:54.364Z,7.87
2019-01-16T05:43:27.030Z,6.37
2019-01-16T05:46:08.751Z,7.35
2019-01-16T05:48:43.940Z,6.05
2019-01-16T05:51:25.787Z,4.87
2019-01-16T05:54:13.410Z,6.17
2019-01-16T05:56:54.706Z,8.65
2019-01-16T05:59:43.781Z,7.12
2019-01-16T06:02:16.460Z,8.95
2019-01-16T06:05:04.414Z,11.40
2019-01-16T06:07:40.582Z,10.23
2019-01-16T06:10:25.978Z,7.17
2019-01-16T06:13:07.385Z,9.40
2019-01-16T06:15:55.453Z,5.97
2019-01-16T06:18:46.271Z,8.15
2019-01-16T06:21:35.594Z,7.78
2019-01-16T06:24:24.936Z,6.47
2019-01-16T06:26:58.606Z,8.95
2019-01-16T06:29:46.356Z,9.55
2019-01-16T06:32:25.372Z,8.25
2019-01-16T06:34:58.046Z,8.28
2019-01-16T06:37:36.994Z,8.73
2019-01-16T06:40:16.564Z,8.93
2019-01-16T06:42:51.746Z,8.83
2019-01-16T06:45:30.057Z,8.20
2019-01-16T06:48:02.846Z,6.83
2019-01-16T06:50:53.661Z,6.70
2019-01-16T06:53:43.106Z,6.45
2019-01-16T06:56:30.916Z,8.55
2019-01-16T06:59:12.609Z,6.83
2019-01-16T07:01:47.896Z,6.58
2019-01-16T07:04:20.592Z,7.50
2019-01-16T07:06:53.295Z,9.25
2019-01-16T07:09:42.385Z,7.33
2019-01-16T07:12:31.770Z,10.32
2019-01-16T07:15:10.141Z,8.33
2019-01-16T07:17:55.069Z,7.90
2019-01-16T07:20:31.456Z,10.00
2019-01-16T07:23:13.555Z,7.75
2019-01-16T07:26:01.387Z,7.17
2019-01-16T07:28:51.028Z,12.05
2019-01-16T07:31:40.470Z,9.60
2019-01-16T07:34:25.211Z,9.78
2019-01-16T07:37:03.571Z,7.67
2019-01-16T07:39:39.013Z,8.45
2019-01-16T07:42:14.464Z,8.33
2019-01-16T07:44:47.159Z,8.30
2019-01-16T07:47:19.833Z,7.33
2019-01-16T07:50:01.804Z,8.48
2019-01-16T07:52:46.551Z,7.10
2019-01-16T07:55:25.077Z,7.85
2019-01-16T07:58:00.501Z,10.72
2019-01-16T08:00:51.357Z,8.23
2019-01-16T08:03:24.046Z,8.90
2019-01-16T08:06:05.572Z,8.73
2019-01-16T08:08:41.026Z,11.95
2019-01-16T08:11:16.292Z,7.87
2019-01-16T08:14:04.459Z,10.25
2019-01-16T08:16:39.906Z,8.75
2019-01-16T08:19:21.682Z,7.08
2019-01-16T08:21:59.973Z,5.87
2019-01-16T08:24:49.326Z,10.13
2019-01-16T08:27:38.517Z,11.08
2019-01-16T08:30:11.290Z,9.28
2019-01-16T08:32:46.765Z,7.72
2019-01-16T08:35:22.221Z,10.65
2019-01-16T08:37:57.455Z,6.42
2019-01-16T08:40:46.603Z,9.95
2019-01-16T08:43:19.283Z,6.20
2019-01-16T08:46:08.549Z,8.58
2019-01-16T08:48:43.990Z,8.50
2019-01-16T08:51:25.846Z,10.80
2019-01-16T08:54:15.248Z,9.90
2019-01-16T08:56:50.698Z,8.20
2019-01-16T08:59:32.362Z,7.78
2019-01-16T09:02:08.003Z,7.80
2019-01-16T09:04:40.705Z,6.47
2019-01-16T09:07:31.253Z,9.05
2019-01-16T09:10:19.300Z,6.55
2019-01-16T09:13:10.203Z,6.25
2019-01-16T09:15:57.955Z,8.90
2019-01-16T09:18:36.821Z,9.65
2019-01-16T09:21:12.519Z,5.92
2019-01-16T09:23:48.006Z,6.22
2019-01-16T09:26:26.304Z,5.35
2019-01-16T09:29:04.535Z,7.60
2019-01-16T09:31:39.990Z,6.92
2019-01-16T09:34:12.657Z,6.22
2019-01-16T09:36:47.970Z,6.00
2019-01-16T09:39:20.642Z,6.17
2019-01-16T09:42:09.690Z,5.50
2019-01-16T09:44:42.369Z,6.10
2019-01-16T09:47:31.352Z,5.20
2019-01-16T09:50:06.616Z,8.90
2019-01-16T09:52:39.328Z,8.00
2019-01-16T09:55:21.336Z,5.33
2019-01-16T09:58:02.654Z,3.85
2019-01-16T10:00:35.319Z,4.12
2019-01-16T10:03:16.600Z,4.97
2019-01-16T10:05:58.348Z,6.78
2019-01-16T10:08:33.645Z,4.12
2019-01-16T10:11:22.906Z,5.85
2019-01-16T10:14:01.580Z,4.62
2019-01-16T10:16:36.957Z,7.53
2019-01-16T10:19:12.608Z,7.28
2019-01-16T10:22:02.361Z,6.40
2019-01-16T10:24:46.896Z,4.45
2019-01-16T10:27:22.356Z,6.05
2019-01-16T10:30:00.605Z,4.28
2019-01-16T10:32:48.381Z,5.37
2019-01-16T10:35:26.847Z,5.20
2019-01-16T10:38:08.170Z,4.75
2019-01-16T10:40:56.055Z,5.78
2019-01-16T10:43:31.485Z,5.05
2019-01-16T10:46:07.235Z,7.80
2019-01-16T10:48:49.522Z,8.00
2019-01-16T10:51:33.851Z,7.17
2019-01-16T10:54:09.397Z,5.00
2019-01-16T10:56:50.963Z,5.20
2019-01-16T10:59:23.627Z,3.80
2019-01-16T11:01:56.308Z,5.17
2019-01-16T11:04:41.072Z,6.53
2019-01-16T11:07:16.253Z,5.05
2019-01-16T11:09:48.928Z,5.58
2019-01-16T11:12:36.652Z,4.30
2019-01-16T11:15:09.685Z,5.58
2019-01-16T11:17:42.365Z,7.85
2019-01-16T11:20:21.095Z,5.42
2019-01-16T11:23:10.141Z,6.80
2019-01-16T11:25:42.806Z,6.40
2019-01-16T11:28:30.566Z,5.03
2019-01-16T11:31:22.376Z,4.83
2019-01-16T11:33:57.742Z,6.10
2019-01-16T11:36:36.487Z,4.55
2019-01-16T11:39:09.267Z,4.17
2019-01-16T11:41:42.054Z,6.08
2019-01-16T11:44:20.399Z,4.70
2019-01-16T11:46:53.080Z,6.12
2019-01-16T11:49:37.834Z,5.42
2019-01-16T11:52:10.524Z,6.92
2019-01-16T11:54:55.528Z,6.28
2019-01-16T11:57:31.038Z,6.80
2019-01-16T12:00:07.069Z,8.10
2019-01-16T12:02:39.828Z,9.33
2019-01-16T12:05:18.563Z,5.47
2019-01-16T12:07:51.240Z,6.25
2019-01-16T12:10:40.395Z,5.22
2019-01-16T12:13:19.155Z,6.40
2019-01-16T12:15:54.403Z,5.90
2019-01-16T12:18:39.164Z,6.05
2019-01-16T12:21:11.839Z,4.12
2019-01-16T12:23:50.050Z,5.97
2019-01-16T12:26:39.344Z,5.70
2019-01-16T12:29:12.016Z,4.65
2019-01-16T12:31:53.607Z,6.30
2019-01-16T12:34:28.784Z,6.20
2019-01-16T12:37:04.263Z,5.10
2019-01-16T12:39:45.823Z,8.88
2019-01-16T12:42:30.579Z,7.22
2019-01-16T12:45:03.271Z,6.85
2019-01-16T12:47:54.001Z,4.12
2019-01-16T12:50:32.709Z,4.45
2019-01-16T12:53:14.636Z,7.35
2019-01-16T12:55:53.129Z,6.20
2019-01-16T12:58:40.941Z,6.58
2019-01-16T13:01:31.795Z,6.22
2019-01-16T13:04:19.571Z,4.97
2019-01-16T13:06:55.609Z,7.25
2019-01-16T13:09:43.124Z,7.87
2019-01-16T13:12:24.832Z,7.25
2019-01-16T13:15:14.391Z,7.35
2019-01-16T13:17:49.986Z,5.35
2019-01-16T13:20:28.461Z,5.90
2019-01-16T13:23:13.276Z,8.20
2019-01-16T13:25:57.815Z,6.47
2019-01-16T13:28:47.286Z,10.58
2019-01-16T13:31:19.986Z,4.78
2019-01-16T13:33:55.408Z,7.12
2019-01-16T13:36:34.271Z,6.53
2019-01-16T13:39:08.449Z,7.00
2019-01-16T13:41:44.177Z,7.28
2019-01-16T13:44:16.841Z,5.40
2019-01-16T13:47:04.446Z,5.35
2019-01-16T13:49:37.119Z,8.78
2019-01-16T13:52:19.134Z,7.80
2019-01-16T13:55:00.724Z,7.20
2019-01-16T13:57:42.496Z,9.03
2019-01-16T14:00:18.454Z,9.88
2019-01-16T14:02:54.089Z,7.67
2019-01-16T14:05:35.424Z,7.42
2019-01-16T14:08:08.217Z,5.00
2019-01-16T14:10:46.561Z,7.10
2019-01-16T14:13:36.267Z,4.37
2019-01-16T14:16:25.783Z,7.33
2019-01-16T14:18:58.557Z,6.80
2019-01-16T14:21:31.281Z,7.83
2019-01-16T14:24:06.442Z,7.17
2019-01-16T14:26:39.143Z,9.78
2019-01-16T14:29:11.995Z,5.65
2019-01-16T14:31:44.683Z,6.10
2019-01-16T14:34:33.952Z,6.58
2019-01-16T14:37:25.331Z,7.28
2019-01-16T14:40:14.351Z,7.22
2019-01-16T14:42:47.050Z,7.15
2019-01-16T14:45:25.378Z,5.78
2019-01-16T14:47:58.062Z,7.37
2019-01-16T14:53:41.237Z,5.72
2019-01-16T14:56:13.891Z,6.83
2019-01-16T14:58:52.612Z,6.15
2019-01-16T15:01:25.283Z,9.40
2019-01-16T15:04:03.924Z,6.55
2019-01-16T15:06:39.262Z,9.33
2019-01-16T15:09:21.071Z,6.35
2019-01-16T15:12:05.596Z,7.70
2019-01-16T15:14:38.275Z,5.80
2019-01-16T15:17:28.896Z,11.45
2019-01-16T15:20:01.580Z,7.87
2019-01-16T15:22:37.051Z,10.50
2019-01-16T15:25:26.430Z,4.95
2019-01-16T15:27:59.107Z,5.25
2019-01-16T15:30:37.709Z,8.30
2019-01-16T15:33:16.399Z,5.90
2019-01-16T15:35:49.071Z,7.12
2019-01-16T15:38:38.265Z,6.40
2019-01-16T15:41:29.074Z,5.00
2019-01-16T15:44:01.771Z,8.78
2019-01-16T15:46:43.354Z,6.87
2019-01-16T15:49:32.578Z,6.53
2019-01-16T15:52:14.232Z,6.95
2019-01-16T15:55:05.920Z,7.97
2019-01-16T15:57:41.557Z,5.60
2019-01-16T16:00:20.273Z,8.63
2019-01-16T16:02:58.758Z,8.50
2019-01-16T16:05:43.135Z,6.45
2019-01-16T16:08:18.573Z,7.72
2019-01-16T16:10:53.771Z,6.37
2019-01-16T16:13:26.442Z,6.22
2019-01-16T16:16:01.681Z,10.80
2019-01-16T16:18:43.180Z,6.30
2019-01-16T16:21:18.624Z,4.90
2019-01-16T16:23:51.289Z,6.90
2019-01-16T16:26:24.204Z,7.20
2019-01-16T16:29:05.815Z,8.03
2019-01-16T16:31:55.206Z,5.25
2019-01-16T16:34:33.651Z,5.05
2019-01-16T16:37:06.414Z,8.28
2019-01-16T16:39:45.799Z,9.28
2019-01-16T16:42:24.376Z,31.80
2019-01-16T16:44:57.057Z,34.45
2019-01-16T16:47:44.679Z,23.45
2019-01-16T16:50:23.000Z,20.17
2019-01-16T16:52:58.485Z,7.97
2019-01-16T16:55:31.159Z,11.35
2019-01-16T16:58:03.839Z,12.98
2019-01-16T17:00:37.614Z,7.08
2019-01-16T17:03:10.408Z,10.10
2019-01-16T17:05:48.622Z,10.23
2019-01-16T17:08:37.890Z,6.55
2019-01-16T17:11:10.664Z,5.12
2019-01-16T17:13:48.850Z,5.40
2019-01-16T17:16:23.364Z,5.90
2019-01-16T17:19:04.840Z,4.97
2019-01-16T17:21:37.510Z,5.80
2019-01-16T17:24:26.805Z,7.40
2019-01-16T17:27:00.532Z,4.80
2019-01-16T17:29:33.230Z,8.33
2019-01-16T17:32:08.933Z,7.12
2019-01-16T17:34:47.143Z,6.05
2019-01-16T17:37:29.058Z,8.25
2019-01-16T17:40:07.720Z,8.53
2019-01-16T17:42:40.431Z,11.55
2019-01-16T17:45:31.529Z,7.95
2019-01-16T17:48:16.547Z,11.03
2019-01-16T17:50:57.989Z,14.10
2019-01-16T17:53:47.656Z,13.78
2019-01-16T17:56:20.332Z,14.07
2019-01-16T17:59:01.887Z,12.10
2019-01-16T18:01:43.773Z,14.30
2019-01-16T18:04:16.462Z,12.53
2019-01-16T18:07:05.650Z,13.83
2019-01-16T18:09:47.626Z,14.55
2019-01-16T18:12:20.291Z,12.07
2019-01-16T18:15:05.067Z,15.68
2019-01-16T18:17:50.094Z,8.90
2019-01-16T18:20:34.924Z,10.20
2019-01-16T18:23:24.210Z,13.43
2019-01-16T18:25:59.689Z,10.63
2019-01-16T18:28:32.360Z,12.00
2019-01-16T18:31:07.856Z,16.25
2019-01-16T18:33:40.528Z,12.40
2019-01-16T18:36:13.545Z,11.25
2019-01-16T18:38:46.231Z,11.43
2019-01-16T18:41:37.059Z,11.33
2019-01-16T18:44:15.554Z,10.40
2019-01-16T18:46:48.263Z,14.25
2019-01-16T18:49:20.961Z,10.00
2019-01-16T18:52:10.491Z,11.80
2019-01-16T18:54:49.207Z,9.95
2019-01-16T18:57:22.003Z,10.32
2019-01-16T18:59:57.206Z,14.73
2019-01-16T19:02:38.974Z,20.48
2019-01-16T19:05:23.598Z,22.82
2019-01-16T19:08:11.608Z,12.70
2019-01-16T19:10:50.021Z,15.53
2019-01-16T19:13:37.839Z,15.95
2019-01-16T19:16:19.113Z,14.03
2019-01-16T19:19:03.905Z,13.83
2019-01-16T19:21:39.377Z,15.10
2019-01-16T19:24:23.986Z,13.22
2019-01-16T19:27:05.397Z,20.65
2019-01-16T19:29:38.049Z,20.75
2019-01-16T19:32:27.220Z,23.07
2019-01-16T19:35:08.776Z,14.15
2019-01-16T19:37:58.462Z,24.47
2019-01-16T19:40:49.313Z,17.60
2019-01-16T19:43:31.229Z,18.42
2019-01-16T19:46:04.293Z,30.02
2019-01-16T19:48:39.814Z,12.88
2019-01-16T19:51:12.483Z,15.00
2019-01-16T19:54:00.351Z,15.55
2019-01-16T19:56:49.391Z,24.63
2019-01-16T19:59:22.057Z,17.20
2019-01-16T20:01:57.921Z,11.30
2019-01-16T20:04:36.897Z,12.43
2019-01-16T20:07:24.474Z,20.57
2019-01-16T20:10:07.138Z,16.45
2019-01-16T20:12:54.917Z,16.07
2019-01-16T20:15:30.283Z,15.83
2019-01-16T20:18:06.314Z,14.07
2019-01-16T20:20:47.792Z,16.07
2019-01-16T20:23:29.260Z,17.80
2019-01-16T20:26:18.461Z,13.68
2019-01-16T20:28:51.151Z,16.27
2019-01-16T20:31:36.141Z,15.80
2019-01-16T20:34:08.816Z,15.40
2019-01-16T20:36:41.565Z,15.55
2019-01-16T20:39:19.822Z,17.50
2019-01-16T20:41:55.399Z,13.70
2019-01-16T20:44:44.912Z,15.50
2019-01-16T20:47:35.566Z,13.30
2019-01-16T20:50:14.801Z,15.88
2019-01-16T20:52:59.427Z,15.18
2019-01-16T20:55:45.823Z,13.85
2019-01-16T20:58:16.079Z,14.23
2019-01-16T21:00:58.602Z,11.95
2019-01-16T21:03:47.956Z,13.75
2019-01-16T21:06:37.368Z,12.75
2019-01-16T21:09:15.850Z,13.30
2019-01-16T21:11:48.557Z,19.45
2019-01-16T21:14:31.117Z,17.32
2019-01-16T21:17:09.591Z,13.50
2019-01-16T21:19:57.164Z,14.93
2019-01-16T21:22:29.844Z,17.75
2019-01-16T21:25:16.401Z,16.02
2019-01-16T21:27:51.727Z,17.10
2019-01-16T21:30:42.590Z,20.48
2019-01-16T21:33:31.624Z,16.17
2019-01-16T21:36:16.463Z,14.78
2019-01-16T21:38:51.733Z,16.07
2019-01-16T21:41:24.417Z,12.30
2019-01-16T21:43:59.927Z,18.70
2019-01-16T21:46:35.356Z,13.95
2019-01-16T21:49:24.601Z,15.28
2019-01-16T21:51:57.276Z,14.40
2019-01-16T21:54:30.050Z,16.62
2019-01-16T21:57:24.747Z,14.65
2019-01-16T22:00:06.668Z,16.23
2019-01-16T22:02:55.688Z,16.55
2019-01-16T22:05:28.373Z,16.15
2019-01-16T22:08:12.877Z,15.63
2019-01-16T22:10:48.079Z,16.42
2019-01-16T22:13:35.655Z,15.38
2019-01-16T22:16:24.718Z,17.42
2019-01-16T22:19:03.236Z,19.23
2019-01-16T22:21:47.655Z,14.63
2019-01-16T22:24:36.801Z,20.62
2019-01-16T22:27:09.490Z,15.78
2019-01-16T22:29:58.653Z,14.95
2019-01-16T22:32:47.958Z,13.70
2019-01-16T22:35:35.814Z,14.80
2019-01-16T22:38:17.271Z,14.28
2019-01-16T22:41:06.552Z,17.30
2019-01-16T22:43:45.022Z,16.27
2019-01-16T22:46:20.214Z,17.55
2019-01-16T22:48:58.711Z,13.95
2019-01-16T22:51:34.288Z,16.48
2019-01-16T22:54:22.166Z,18.48
2019-01-16T22:57:03.954Z,17.52
2019-01-16T22:59:36.622Z,18.87
2019-01-16T23:02:21.248Z,15.50
2019-01-16T23:04:54.301Z,17.52
2019-01-16T23:07:29.475Z,19.55
2019-01-16T23:10:07.933Z,16.97
2019-01-16T23:12:43.659Z,19.65
2019-01-16T23:15:18.834Z,18.67
2019-01-16T23:17:51.504Z,16.77
2019-01-16T23:20:27.047Z,17.85
2019-01-16T23:23:16.332Z,16.35
2019-01-16T23:25:51.983Z,17.82
2019-01-16T23:28:24.664Z,20.80
2019-01-16T23:31:14.207Z,19.25
2019-01-16T23:34:03.609Z,20.65
2019-01-16T23:36:52.977Z,21.05
2019-01-16T23:39:34.618Z,16.30
2019-01-16T23:42:19.675Z,18.92
2019-01-16T23:45:08.816Z,18.55
2019-01-16T23:47:44.509Z,20.23
2019-01-16T23:50:33.960Z,19.82
2019-01-16T23:53:23.028Z,19.17
2019-01-16T23:56:01.483Z,21.42
2019-01-16T23:58:34.256Z,19.80
